Time;durP1;ratioP1;P1;durP2;ratioP2;P2;SDS_P1;SDS_P2;PMS_P1;PMS_P2;Temp;Humidity;BMP_temperature;BMP_pressure;BME280_temperature;BME280_humidity;BME280_pressure;Samples;Min_cycle;Max_cycle;Signal;HPM_P1;HPM_P2
2022/01/07 04:50:24;;;;;;;12.17;8.73;;;;;;;3.00;61.12;99044.44;6785187;29;20226;-82
2022/01/07 04:53:45;;;;;;;13.93;10.57;;;;;;;3.31;58.79;99069.69;6788057;29;20279;-82
2022/01/07 04:57:07;;;;;;;16.90;10.20;;;;;;;2.20;61.24;99059.50;6781414;29;20223;-83
2022/01/07 05:00:29;;;;;;;9.43;7.60;;;;;;;2.45;62.39;99053.50;6780429;29;20247;-83
2022/01/07 05:03:51;;;;;;;11.33;8.40;;;;;;;3.29;59.35;99078.84;6782996;29;20230;-82
2022/01/07 05:07:14;;;;;;;11.00;8.47;;;;;;;2.98;59.55;99056.25;6788453;29;20700;-83
2022/01/07 05:10:37;;;;;;;9.70;6.83;;;;;;;2.71;60.05;99065.13;6783182;29;20267;-83
2022/01/07 05:13:58;;;;;;;8.83;6.97;;;;;;;2.24;61.79;99073.38;6775059;29;20321;-83
2022/01/07 05:17:20;;;;;;;10.47;8.50;;;;;;;3.57;57.12;99067.94;6774260;29;20278;-83
2022/01/07 05:20:43;;;;;;;10.97;6.60;;;;;;;3.19;58.53;99070.09;6779013;29;20266;-83
2022/01/07 05:24:07;;;;;;;8.30;6.97;;;;;;;3.62;56.22;99075.47;6787710;29;20225;-82
2022/01/07 05:27:28;;;;;;;12.23;7.63;;;;;;;3.42;57.24;99063.31;6780010;29;20236;-83
2022/01/07 05:30:50;;;;;;;10.10;7.77;;;;;;;3.96;57.11;99073.72;6783901;29;20242;-82
2022/01/07 05:34:11;;;;;;;13.20;8.30;;;;;;;4.28;55.52;99072.06;6789594;29;20235;-83
2022/01/07 05:37:33;;;;;;;15.00;7.33;;;;;;;3.86;56.47;99078.31;6808686;29;20216;-83
2022/01/07 05:40:56;;;;;;;11.00;7.37;;;;;;;3.04;58.41;99048.50;6785613;29;20215;-83
2022/01/07 05:44:18;;;;;;;9.37;7.40;;;;;;;3.26;58.53;99058.66;6791413;29;20597;-82
2022/01/07 05:47:40;;;;;;;12.93;8.07;;;;;;;3.66;57.23;99067.00;6773944;29;20228;-83
2022/01/07 05:51:01;;;;;;;9.70;7.93;;;;;;;4.22;55.86;99059.38;6784061;29;20219;-83
2022/01/07 05:54:23;;;;;;;9.80;7.70;;;;;;;4.19;55.42;99066.84;6784711;29;20258;-83
2022/01/07 05:57:46;;;;;;;12.07;8.77;;;;;;;4.37;56.60;99059.59;6777115;29;20219;-83
2022/01/07 06:01:09;;;;;;;14.73;9.63;;;;;;;3.55;57.98;99050.44;6777422;29;20673;-83
2022/01/07 06:04:31;;;;;;;11.33;9.47;;;;;;;3.88;57.67;99054.97;6774086;29;20355;-83
2022/01/07 06:07:53;;;;;;;15.20;9.43;;;;;;;3.27;57.88;99043.53;6770295;29;20217;-82
2022/01/07 06:11:14;;;;;;;11.00;8.33;;;;;;;4.37;55.91;99038.25;6778693;29;20223;-83
2022/01/07 06:14:37;;;;;;;11.30;9.13;;;;;;;4.52;54.81;99024.13;6775734;29;20304;-82
2022/01/07 06:18:00;;;;;;;13.63;9.60;;;;;;;4.00;56.26;99043.88;6784744;29;20215;-83
2022/01/07 06:21:22;;;;;;;17.67;9.27;;;;;;;4.17;55.71;99050.16;6793331;29;20217;-83
2022/01/07 06:24:43;;;;;;;12.70;8.60;;;;;;;3.20;57.29;99045.94;6784381;29;20244;-83
2022/01/07 06:28:05;;;;;;;11.70;8.40;;;;;;;3.80;56.27;99039.78;6789836;29;20203;-83
2022/01/07 06:31:28;;;;;;;11.23;8.87;;;;;;;3.51;56.29;99028.56;6787922;29;20218;-83
2022/01/07 06:34:50;;;;;;;11.90;8.37;;;;;;;3.53;56.97;99042.56;6791288;29;20232;-83
2022/01/07 06:38:11;;;;;;;11.10;8.13;;;;;;;3.95;55.27;99038.19;6785388;29;20215;-82
2022/01/07 06:41:33;;;;;;;10.17;7.20;;;;;;;4.29;53.55;99039.03;6791141;29;20217;-82
2022/01/07 06:44:55;;;;;;;9.13;6.30;;;;;;;3.62;53.97;99031.00;6781991;29;20291;-83
2022/01/07 06:48:19;;;;;;;8.33;5.97;;;;;;;3.77;54.50;99025.94;6779952;29;20223;-83
2022/01/07 06:51:40;;;;;;;10.47;6.70;;;;;;;3.65;54.22;99005.84;6781754;29;20214;-83
2022/01/07 06:55:02;;;;;;;10.00;6.33;;;;;;;4.07;53.82;99025.44;6782229;29;20277;-84
2022/01/07 06:58:23;;;;;;;9.60;7.13;;;;;;;3.93;53.80;99021.53;6780067;29;20227;-80
2022/01/07 07:01:47;;;;;;;8.97;6.73;;;;;;;4.10;54.37;99003.75;6783189;29;20215;-84
2022/01/07 07:05:11;;;;;;;7.63;6.77;;;;;;;4.32;53.96;99006.69;6778033;29;20720;-82
2022/01/07 07:08:32;;;;;;;10.87;7.20;;;;;;;4.55;53.03;99009.63;6776530;29;20208;-82
2022/01/07 07:11:54;;;;;;;8.73;6.77;;;;;;;4.46;53.44;99005.22;6790239;29;20217;-82
2022/01/07 07:15:15;;;;;;;10.03;7.30;;;;;;;4.68;52.70;98993.97;6795263;29;20219;-82
2022/01/07 07:18:37;;;;;;;8.00;6.60;;;;;;;4.48;52.56;98988.06;6810703;29;20219;-82
2022/01/07 07:22:00;;;;;;;7.73;6.60;;;;;;;4.15;52.05;98927.59;6802922;29;20690;-82
2022/01/07 07:25:23;;;;;;;10.60;6.83;;;;;;;4.56;52.76;99000.59;6803489;29;20270;-83
2022/01/07 07:28:46;;;;;;;10.43;7.60;;;;;;;4.65;52.64;99005.78;6814256;29;20208;-85
2022/01/07 07:32:09;;;;;;;13.07;7.40;;;;;;;4.73;51.91;98997.78;6797980;29;20191;-82
2022/01/07 07:39:12;;;;;;;11.77;7.77;;;;;;;4.27;53.57;98986.81;6802954;29;20223;-82
2022/01/07 07:42:34;;;;;;;7.83;7.03;;;;;;;4.27;52.99;98952.97;6814293;29;20235;-81
2022/01/07 07:45:55;;;;;;;10.87;7.43;;;;;;;4.64;53.14;98972.09;6795844;29;20232;-83
2022/01/07 07:49:18;;;;;;;10.13;7.20;;;;;;;4.96;52.58;98987.34;6800562;29;20228;-82
2022/01/07 07:52:40;;;;;;;13.43;8.20;;;;;;;4.46;53.67;98973.19;6800553;29;20208;-82
2022/01/07 07:56:03;;;;;;;8.83;7.47;;;;;;;4.56;53.20;98928.50;6792983;29;20252;-82
2022/01/07 07:59:25;;;;;;;9.40;7.50;;;;;;;4.97;52.07;98965.81;6784433;29;20267;-82
2022/01/07 08:02:47;;;;;;;11.70;7.83;;;;;;;4.75;52.65;98962.91;6778445;29;20239;-82
2022/01/07 08:06:08;;;;;;;10.73;8.20;;;;;;;5.16;51.59;98967.28;6776645;29;20258;-82
2022/01/07 08:09:33;;;;;;;12.27;7.47;;;;;;;5.05;52.07;98963.13;6782081;29;20294;-82
2022/01/07 08:13:26;;;;;;;10.00;7.37;;;;;;;5.07;52.15;98963.78;6766884;29;20215;-82
2022/01/07 08:16:45;;;;;;;9.33;6.90;;;;;;;5.03;52.40;98961.63;6778734;29;20226;-82
2022/01/07 08:20:08;;;;;;;7.00;6.30;;;;;;;4.36;52.71;98930.63;6774173;29;20839;-82
2022/01/07 08:23:30;;;;;;;9.93;6.90;;;;;;;4.58;53.71;98950.53;6775091;29;20212;-81
2022/01/07 08:26:52;;;;;;;8.70;7.37;;;;;;;4.56;53.42;98944.53;6777584;29;20262;-82
2022/01/07 08:30:21;;;;;;;9.87;7.17;;;;;;;4.69;53.07;98940.41;6769027;29;20214;-82
2022/01/07 08:37:24;;;;;;;8.70;7.20;;;;;;;4.96;53.04;98931.22;6773386;29;20235;-83
2022/01/07 08:40:46;;;;;;;10.33;7.90;;;;;;;4.29;53.74;98942.97;6780139;29;20697;-82
2022/01/07 08:44:08;;;;;;;10.73;7.87;;;;;;;4.82;53.17;98948.75;6773922;29;20267;-82
2022/01/07 08:47:31;;;;;;;11.83;7.67;;;;;;;5.35;51.77;98934.88;6771151;29;20240;-82
2022/01/07 08:50:52;;;;;;;12.20;8.13;;;;;;;4.98;53.03;98943.44;6774470;29;20552;-83
2022/01/07 08:54:14;;;;;;;9.80;7.13;;;;;;;4.58;51.68;98843.75;6781881;29;20299;-82
2022/01/07 08:57:36;;;;;;;10.00;7.20;;;;;;;4.82;52.23;98934.53;6762611;29;20426;-82
2022/01/07 09:00:58;;;;;;;10.87;7.03;;;;;;;5.05;52.55;98936.41;6777466;29;20256;-83
2022/01/07 09:04:21;;;;;;;9.47;7.27;;;;;;;5.17;52.03;98942.22;6766158;29;20210;-82
2022/01/07 09:07:42;;;;;;;9.50;7.27;;;;;;;4.79;52.68;98925.03;6775737;29;20199;-82
2022/01/07 09:11:04;;;;;;;10.47;7.80;;;;;;;4.46;53.82;98906.47;6784386;29;20213;-82
2022/01/07 09:14:26;;;;;;;9.57;6.90;;;;;;;4.99;53.26;98941.56;6771105;29;20597;-85
2022/01/07 09:17:49;;;;;;;13.77;7.80;;;;;;;5.03;52.88;98943.75;6774582;29;20548;-83
2022/01/07 09:21:12;;;;;;;9.70;7.50;;;;;;;5.07;52.99;98936.25;6779922;29;20205;-82
2022/01/07 09:24:34;;;;;;;10.47;8.23;;;;;;;5.44;52.47;98941.88;6769088;29;20234;-82
2022/01/07 09:27:55;;;;;;;13.53;8.00;;;;;;;5.01;53.29;98955.63;6776581;29;20604;-82
2022/01/07 09:31:17;;;;;;;7.70;6.90;;;;;;;5.03;52.91;98940.25;6790916;29;20224;-83
2022/01/07 09:34:39;;;;;;;10.53;7.37;;;;;;;5.10;53.57;98938.56;6779650;29;20246;-82
2022/01/07 09:38:04;;;;;;;10.17;7.27;;;;;;;4.92;54.38;98935.22;6780420;29;20233;-82
2022/01/07 09:41:26;;;;;;;10.20;7.90;;;;;;;5.46;53.25;98926.50;6779123;29;20204;-82
2022/01/07 09:44:48;;;;;;;9.70;7.50;;;;;;;5.01;53.48;98908.34;6779982;29;20235;-82
2022/01/07 09:48:10;;;;;;;9.63;8.00;;;;;;;4.39;53.99;98806.72;6786080;29;20211;-82
2022/01/07 09:51:32;;;;;;;11.87;8.20;;;;;;;5.33;53.32;98916.34;6779135;29;20212;-82
2022/01/07 09:54:55;;;;;;;10.63;7.57;;;;;;;5.30;53.50;98913.19;6779838;29;20239;-82
2022/01/07 09:58:16;;;;;;;9.10;7.43;;;;;;;5.50;53.59;98909.97;6782101;29;20605;-82
2022/01/07 10:01:57;;;;;;;8.67;7.77;;;;;;;5.75;52.53;98900.00;6774873;29;20222;-82
2022/01/07 10:05:19;;;;;;;10.27;7.37;;;;;;;5.60;52.54;98881.16;6773868;29;20232;-82
2022/01/07 10:08:41;;;;;;;9.50;8.03;;;;;;;5.68;52.30;98883.84;6786714;29;20723;-82
2022/01/07 10:12:06;;;;;;;9.23;7.40;;;;;;;5.90;52.18;98874.25;6779037;29;20335;-82
2022/01/07 10:15:29;;;;;;;8.83;7.03;;;;;;;6.03;51.98;98879.88;6781769;29;20232;-82
2022/01/07 10:18:51;;;;;;;7.50;6.50;;;;;;;5.95;51.94;98875.38;6782176;29;20207;-84
2022/01/07 10:22:15;;;;;;;9.37;7.13;;;;;;;5.19;52.73;98812.78;6775997;29;20214;-85
2022/01/07 10:25:39;;;;;;;10.40;7.87;;;;;;;6.34;52.46;98878.84;6777955;29;20316;-85
2022/01/07 10:29:02;;;;;;;10.00;7.27;;;;;;;6.60;50.56;98876.66;6774994;29;20215;-84
2022/01/07 10:32:29;;;;;;;11.57;7.50;;;;;;;6.35;52.25;98880.53;6764279;29;20519;-86
2022/01/07 10:35:52;;;;;;;9.53;7.57;;;;;;;6.97;51.27;98866.00;6777010;29;20244;-84
2022/01/07 10:39:30;;;;;;;8.67;7.50;;;;;;;7.28;51.45;98874.75;6768663;29;20230;-82
2022/01/07 10:42:54;;;;;;;8.53;6.97;;;;;;;7.19;50.51;98877.69;6775285;29;20201;-83
2022/01/07 10:46:20;;;;;;;12.00;9.10;;;;;;;7.03;51.41;98841.16;6782963;23;20270;-77
2022/01/07 10:49:42;;;;;;;9.90;7.03;;;;;;;6.62;51.17;98818.41;6778102;29;20587;-78
2022/01/07 10:53:18;;;;;;;11.37;7.47;;;;;;;6.81;51.39;98833.13;6763502;29;20218;-78
2022/01/07 10:56:43;;;;;;;10.80;7.87;;;;;;;6.34;52.90;98844.06;6776516;29;20233;-80
2022/01/07 11:00:10;;;;;;;9.07;7.43;;;;;;;6.70;53.76;98865.72;6774221;29;20219;-80
2022/01/07 11:03:34;;;;;;;8.20;7.27;;;;;;;6.74;52.95;98834.88;6782343;29;20703;-80
2022/01/07 11:14:53;;;;;;;12.03;8.20;;;;;;;5.65;55.94;98771.84;6653876;29;20359;-92
2022/01/07 11:18:15;;;;;;;9.70;7.83;;;;;;;5.96;56.61;98828.06;6656292;29;20412;-93
2022/01/07 11:34:25;;;;;;;12.77;8.67;;;;;;;5.91;59.06;98836.63;6616283;29;20643;-83
2022/01/07 11:37:50;;;;;;;13.20;8.90;;;;;;;5.31;61.40;98815.94;6643767;29;20632;-78
2022/01/07 11:41:31;;;;;;;11.93;9.43;;;;;;;5.47;61.67;98829.22;6763222;29;20208;-81
2022/01/07 11:44:53;;;;;;;13.03;8.60;;;;;;;5.72;60.99;98809.44;6809206;29;20210;-77
2022/01/07 11:48:17;;;;;;;13.37;9.17;;;;;;;5.67;62.21;98817.94;6827000;28;20216;-77
2022/01/07 11:51:42;;;;;;;14.00;9.93;;;;;;;6.21;61.41;98821.56;6798986;29;20364;-77
2022/01/07 11:55:22;;;;;;;15.97;10.07;;;;;;;5.50;60.75;98800.34;6795819;29;20732;-77
2022/01/07 11:58:46;;;;;;;14.87;8.87;;;;;;;6.10;60.86;98814.78;6791329;29;20569;-77
2022/01/07 12:02:08;;;;;;;9.70;8.47;;;;;;;5.96;60.21;98812.81;6808919;29;20205;-77
2022/01/07 12:05:30;;;;;;;13.33;8.73;;;;;;;5.56;61.57;98802.31;6809399;29;20603;-77
2022/01/07 12:09:10;;;;;;;11.83;8.70;;;;;;;5.25;63.02;98808.59;6791750;29;20208;-77
2022/01/07 12:12:35;;;;;;;9.70;8.53;;;;;;;5.50;62.55;98805.69;6802958;29;20208;-77
2022/01/07 12:15:58;;;;;;;9.03;7.07;;;;;;;5.96;60.54;98794.09;6808338;29;20268;-77
2022/01/07 12:20:02;;;;;;;10.07;8.00;;;;;;;5.94;60.67;98787.25;6809217;29;20227;-77
2022/01/07 12:23:36;;;;;;;11.30;9.20;;;;;;;6.43;59.68;98786.75;6786856;29;20237;-81
2022/01/07 12:27:02;;;;;;;9.40;7.57;;;;;;;7.04;57.79;98783.00;6794680;29;20572;-79
2022/01/07 12:30:25;;;;;;;13.00;7.33;;;;;;;7.03;57.25;98767.94;6808714;29;20225;-77
2022/01/07 12:33:50;;;;;;;7.93;6.97;;;;;;;7.01;56.83;98764.63;6808837;29;20214;-77
2022/01/07 12:37:13;;;;;;;11.30;7.43;;;;;;;7.13;56.46;98757.78;6808639;29;20236;-77
2022/01/07 12:40:35;;;;;;;9.00;7.00;;;;;;;7.05;56.54;98742.63;6808811;29;20233;-77
2022/01/07 12:44:04;;;;;;;10.00;7.00;;;;;;;7.07;56.73;98759.34;6808153;29;20218;-77
2022/01/07 12:47:30;;;;;;;9.20;6.93;;;;;;;7.03;56.26;98739.31;6808360;29;20227;-77
2022/01/07 12:50:52;;;;;;;9.83;6.90;;;;;;;7.44;55.29;98739.66;6808653;29;20566;-77
2022/01/07 12:54:13;;;;;;;11.37;7.40;;;;;;;7.46;56.12;98743.81;6808421;29;20583;-77
2022/01/07 12:57:37;;;;;;;9.47;7.40;;;;;;;6.87;57.22;98744.81;6830003;29;20233;-77
2022/01/07 13:00:59;;;;;;;11.13;7.03;;;;;;;7.67;54.98;98724.25;6834691;28;20660;-77
2022/01/07 13:04:25;;;;;;;10.07;7.50;;;;;;;7.81;54.21;98702.75;6834623;28;20215;-77
2022/01/07 13:07:48;;;;;;;10.37;7.53;;;;;;;7.71;54.40;98714.81;6834657;28;20214;-77
2022/01/07 13:11:09;;;;;;;8.20;6.90;;;;;;;7.84;53.31;98680.88;6834836;28;20212;-77
2022/01/07 13:14:31;;;;;;;7.63;6.83;;;;;;;7.64;53.97;98666.44;6830866;28;20209;-77
2022/01/07 13:17:52;;;;;;;7.67;5.90;;;;;;;8.09;52.10;98698.28;6834071;28;20242;-77
2022/01/07 13:21:17;;;;;;;6.47;5.60;;;;;;;7.65;53.88;98702.13;6834418;28;20217;-78
2022/01/07 13:24:39;;;;;;;8.70;6.10;;;;;;;7.63;53.89;98688.06;6833756;29;20201;-77
2022/01/07 13:28:01;;;;;;;11.90;6.57;;;;;;;8.13;53.10;98701.41;6834074;29;20642;-78
2022/01/07 13:31:31;;;;;;;8.93;7.93;;;;;;;8.53;52.60;98693.53;6818616;29;20220;-77
2022/01/07 13:34:52;;;;;;;7.70;6.57;;;;;;;8.26;52.07;98691.63;6792204;29;20210;-77
2022/01/07 13:38:17;;;;;;;9.23;6.67;;;;;;;7.91;52.90;98683.63;6821041;28;20677;-77
2022/01/07 13:41:53;;;;;;;8.63;7.20;;;;;;;7.94;52.75;98684.09;6817596;29;20198;-77
2022/01/07 13:45:22;;;;;;;9.93;7.33;;;;;;;7.71;53.29;98669.19;6818075;28;20212;-77
2022/01/07 13:48:52;;;;;;;10.33;6.20;;;;;;;7.56;53.40;98674.59;6805122;29;20216;-77
2022/01/07 13:52:14;;;;;;;7.60;6.00;;;;;;;7.88;53.21;98682.16;6788053;29;20219;-77
2022/01/07 13:55:39;;;;;;;11.40;7.47;;;;;;;8.18;52.59;98677.47;6806232;29;20240;-77
2022/01/07 13:59:02;;;;;;;11.70;7.20;;;;;;;7.69;52.61;98665.84;6790385;29;20215;-77
2022/01/07 14:02:25;;;;;;;11.80;7.77;;;;;;;7.55;54.08;98667.56;6806408;29;20219;-77
2022/01/07 14:06:01;;;;;;;9.97;7.43;;;;;;;7.90;52.98;98661.31;6807266;29;20223;-77
2022/01/07 14:09:23;;;;;;;10.27;7.57;;;;;;;7.91;52.72;98667.53;6789790;29;20226;-77
2022/01/07 14:12:51;;;;;;;7.43;6.33;;;;;;;7.98;52.81;98674.63;6798672;29;20220;-77
2022/01/07 14:16:22;;;;;;;13.30;7.80;;;;;;;7.85;53.43;98682.53;6803239;29;20236;-78
2022/01/07 14:19:55;;;;;;;11.27;8.03;;;;;;;7.91;54.15;98695.19;6777614;29;20236;-77
2022/01/07 14:23:18;;;;;;;10.93;7.53;;;;;;;8.03;53.44;98687.47;6780674;29;20353;-77
2022/01/07 14:26:45;;;;;;;8.27;7.03;;;;;;;7.78;52.95;98692.38;6780563;29;20210;-77
2022/01/07 14:30:10;;;;;;;10.77;7.20;;;;;;;7.50;53.53;98661.94;6802930;29;20206;-77
2022/01/07 14:33:31;;;;;;;9.83;7.20;;;;;;;7.44;53.93;98691.38;6799809;29;20216;-77
2022/01/07 14:36:53;;;;;;;9.57;7.20;;;;;;;7.68;53.81;98678.47;6809047;29;20283;-77
2022/01/07 14:40:15;;;;;;;12.20;6.77;;;;;;;7.58;54.04;98690.50;6818654;29;20202;-78
2022/01/07 14:43:37;;;;;;;7.43;6.43;;;;;;;7.57;53.86;98659.31;6820524;28;20574;-77
2022/01/07 14:47:00;;;;;;;9.77;6.77;;;;;;;7.69;53.60;98664.00;6827818;28;20227;-77
2022/01/07 14:50:21;;;;;;;8.83;7.73;;;;;;;7.41;54.47;98643.44;6816841;29;20215;-77
2022/01/07 14:53:43;;;;;;;8.17;7.00;;;;;;;7.30;55.39;98674.28;6817991;29;20569;-77
2022/01/07 14:57:05;;;;;;;8.23;7.43;;;;;;;7.24;55.47;98676.91;6820634;29;20237;-77
2022/01/07 15:00:28;;;;;;;10.70;8.67;;;;;;;7.54;54.34;98662.41;6820097;28;20675;-77
2022/01/07 15:03:51;;;;;;;11.37;8.80;;;;;;;7.56;54.62;98679.97;6828922;28;20546;-77
2022/01/07 15:07:13;;;;;;;13.27;9.43;;;;;;;7.55;55.19;98667.56;6810895;29;20659;-77
2022/01/07 15:10:35;;;;;;;9.40;6.30;;;;;;;7.39;54.86;98672.31;6803791;29;20805;-77
2022/01/07 15:14:02;;;;;;;9.20;5.80;;;;;;;7.59;54.12;98663.47;6806745;29;20213;-83
2022/01/07 15:17:30;;;;;;;7.60;5.90;;;;;;;7.71;54.00;98666.50;6812964;29;20610;-77
2022/01/07 15:20:54;;;;;;;6.07;5.30;;;;;;;7.60;53.74;98635.63;6810513;29;20220;-78
2022/01/07 15:28:26;;;;;;;7.77;5.70;;;;;;;7.68;53.23;98693.72;6709755;29;20574;-78
2022/01/07 15:31:47;;;;;;;9.17;8.10;;;;;;;7.94;53.44;98678.72;6725454;29;20342;-77
2022/01/07 15:35:09;;;;;;;8.77;6.20;;;;;;;8.02;53.23;98673.22;6728551;29;20222;-77
2022/01/07 15:38:34;;;;;;;9.30;7.40;;;;;;;7.68;53.88;98664.19;6728492;29;20236;-77
2022/01/07 15:41:55;;;;;;;10.07;8.10;;;;;;;7.47;54.54;98677.56;6728831;29;20247;-77
2022/01/07 15:45:17;;;;;;;12.43;8.10;;;;;;;7.59;54.69;98678.72;6728800;29;20218;-77
2022/01/07 15:48:39;;;;;;;13.57;7.60;;;;;;;7.44;55.07;98689.53;6712531;29;20682;-77
2022/01/07 15:52:01;;;;;;;8.87;6.97;;;;;;;7.75;54.50;98690.09;6728417;29;20208;-77
2022/01/07 15:55:24;;;;;;;11.33;8.00;;;;;;;7.59;54.93;98693.00;6728611;29;20216;-78
2022/01/07 15:58:45;;;;;;;7.00;5.70;;;;;;;7.39;55.05;98678.53;6728540;29;20233;-77
2022/01/07 16:02:07;;;;;;;8.33;7.00;;;;;;;7.66;54.60;98687.72;6728737;29;20223;-78
2022/01/07 16:05:31;;;;;;;7.40;5.97;;;;;;;7.56;54.31;98658.50;6781143;29;20215;-77
2022/01/07 16:08:52;;;;;;;5.70;4.23;;;;;;;7.16;54.67;98659.06;6809291;29;20718;-77
2022/01/07 16:12:15;;;;;;;5.83;4.27;;;;;;;7.29;55.13;98686.03;6807170;29;20480;-77
2022/01/07 16:15:37;;;;;;;4.63;3.50;;;;;;;6.91;55.75;98663.06;6809288;29;20674;-77
2022/01/07 16:18:59;;;;;;;4.30;3.67;;;;;;;7.38;54.51;98679.53;6821957;28;20736;-77
2022/01/07 16:22:23;;;;;;;4.27;3.73;;;;;;;6.85;54.91;98628.94;6808474;29;20665;-78
2022/01/07 16:25:45;;;;;;;16.63;11.00;;;;;;;7.30;54.07;98666.22;6808059;29;20212;-77
2022/01/07 16:29:13;;;;;;;6.43;5.03;;;;;;;7.66;56.04;98677.78;6809309;29;20217;-81
2022/01/07 16:32:35;;;;;;;6.10;5.30;;;;;;;7.96;54.91;98667.78;6807586;29;20210;-78
2022/01/07 16:35:57;;;;;;;7.30;4.63;;;;;;;7.94;55.22;98673.34;6807296;29;20236;-77
2022/01/07 16:39:19;;;;;;;5.07;3.63;;;;;;;8.12;53.69;98657.63;6820852;29;20208;-78
2022/01/07 16:42:41;;;;;;;3.73;3.43;;;;;;;7.48;54.21;98661.28;6820380;29;20714;-77
2022/01/07 16:46:04;;;;;;;3.80;3.40;;;;;;;7.74;54.56;98644.66;6828919;29;20228;-78
2022/01/07 16:49:26;;;;;;;4.40;4.00;;;;;;;7.92;55.37;98663.81;6834767;28;20224;-77
2022/01/07 16:52:47;;;;;;;5.67;3.73;;;;;;;7.89;54.43;98630.13;6820364;28;20232;-78
2022/01/07 16:56:09;;;;;;;4.30;3.70;;;;;;;8.33;53.41;98675.59;6816983;29;20229;-78
2022/01/07 16:59:31;;;;;;;6.90;4.13;;;;;;;8.64;53.36;98673.34;6817527;28;20205;-78
2022/01/07 17:02:54;;;;;;;4.60;4.07;;;;;;;8.65;53.77;98683.91;6799053;29;20206;-78
2022/01/07 17:06:15;;;;;;;7.07;4.90;;;;;;;8.51;52.05;98665.19;6798434;29;20670;-78
2022/01/07 17:43:46;;;;;;;4.70;4.30;;;;;;;7.38;54.98;98667.97;6888302;28;20288;-79
2022/01/07 17:47:14;;;;;;;6.27;4.30;;;;;;;7.28;55.49;98680.84;6887711;28;20214;-80
2022/01/07 17:50:36;;;;;;;4.97;4.00;;;;;;;7.01;54.98;98607.31;6889464;28;20212;-81
2022/01/07 17:54:09;;;;;;;5.80;4.57;;;;;;;7.26;54.75;98646.16;6887245;28;20236;-80
2022/01/07 17:57:38;;;;;;;4.67;4.17;;;;;;;6.83;56.13;98641.69;6886927;28;20683;-80
2022/01/07 18:01:01;;;;;;;4.60;4.20;;;;;;;7.36;55.33;98664.66;6887383;28;20200;-81
2022/01/07 18:04:23;;;;;;;7.50;5.70;;;;;;;7.43;54.43;98646.78;6887350;28;20214;-80
2022/01/07 18:07:45;;;;;;;4.80;4.30;;;;;;;7.35;54.31;98666.50;6887053;28;20210;-79
2022/01/07 18:11:06;;;;;;;6.27;4.30;;;;;;;7.77;53.74;98655.00;6888059;28;20203;-80
2022/01/07 18:14:30;;;;;;;8.73;5.43;;;;;;;7.70;53.90;98663.00;6887085;28;20207;-81
2022/01/07 20:20:50;;;;;;;3.90;3.60;;;;;;;7.32;55.00;98615.09;6892885;23;20244;-78
2022/01/07 20:24:12;;;;;;;3.50;3.30;;;;;;;7.18;56.30;98693.72;6846489;28;20248;-79
2022/01/07 20:27:35;;;;;;;4.40;3.40;;;;;;;7.10;56.25;98651.75;6833753;29;20203;-78
2022/01/07 20:30:58;;;;;;;3.63;3.40;;;;;;;6.94;55.39;98574.22;6835027;29;20213;-79
2022/01/07 20:34:20;;;;;;;3.63;3.33;;;;;;;6.77;56.95;98621.00;6834880;28;20208;-78
2022/01/07 20:37:44;;;;;;;3.83;3.43;;;;;;;6.90;56.17;98613.13;6834949;29;20235;-78
2022/01/07 20:41:10;;;;;;;4.00;3.60;;;;;;;7.42;55.67;98632.53;6835759;29;20204;-78
2022/01/07 20:44:38;;;;;;;3.83;3.43;;;;;;;7.14;54.84;98550.34;6835231;29;20658;-78
2022/01/07 20:48:05;;;;;;;3.77;3.47;;;;;;;6.65;56.62;98576.94;6834916;29;20212;-78
2022/01/07 20:51:27;;;;;;;3.50;3.20;;;;;;;6.86;57.41;98659.25;6835354;29;20214;-78
2022/01/07 20:54:53;;;;;;;3.97;3.53;;;;;;;6.35;58.01;98585.16;6834630;29;20680;-77
2022/01/07 20:58:25;;;;;;;3.40;3.10;;;;;;;6.34;58.72;98597.75;6837154;28;20238;-81
2022/01/07 21:06:30;;;;;;;3.70;3.40;;;;;;;6.73;58.16;98626.94;6781145;29;20289;-90
2022/01/07 21:09:56;;;;;;;6.30;3.20;;;;;;;6.50;58.35;98608.28;6772281;29;20217;-79
2022/01/07 21:13:31;;;;;;;3.23;3.03;;;;;;;6.39;58.45;98591.81;6780107;29;20202;-82
2022/01/07 21:24:43;;;;;;;3.30;3.00;;;;;;;7.05;56.69;98597.88;8301740;23;20238;-79
2022/01/07 21:28:08;;;;;;;3.70;3.27;;;;;;;6.99;57.18;98601.31;6845355;28;20659;-77
2022/01/07 21:31:42;;;;;;;3.30;3.10;;;;;;;7.11;56.67;98573.00;6861192;28;20583;-80
2022/01/07 21:35:40;;;;;;;3.90;3.57;;;;;;;7.31;56.00;98586.63;6888725;28;20699;-84
